Hemlock Grove, Pennsylvania
Current Conditions -  °F | °C
As of 10:03 PM on Monday 22 Dec 2014 (Local Time) from KIPT Reporting Station
Freezing Rain Freezing Rain  
Wind Chill: 33°   Ceiling: 800
Heat Index: 33°   Visibility: 4mi
Dew Point: 30°   Wind: 3mph
Humidity: 89%   Direction: 110°ESE
Pressure: 30.15"   Gusts: NA
Location:  41.3719°N, 76.499°W
Report Text: KIPT 230303Z 11003KT 4SM -FZRA BR BKN008 BKN012 OVC037 01/M01 A3015 RMK AO2 RAE0257FZRAB0257 P0001 I1001 T00061011
Loading
Personal Weather Stations






























Interactive Weather Map New forecast layout! Learn more

10-Day Weather Forecast

Advertisements
Track Severe Weather on mobile